sensor_id;sensor_type;location;lat;lon;timestamp;pressure;altitude;pressure_sealevel;temperature;humidity
49973;BME280;65693;49.798;10.968;2023-03-22T00:00:55;97998.78;;;10.54;63.06
49973;BME280;65693;49.798;10.968;2023-03-22T00:03:25;97997.00;;;10.54;63.39
49973;BME280;65693;49.798;10.968;2023-03-22T00:05:57;97992.66;;;10.53;63.08
49973;BME280;65693;49.798;10.968;2023-03-22T00:08:25;97987.34;;;10.53;63.11
49973;BME280;65693;49.798;10.968;2023-03-22T00:11:01;97990.00;;;10.53;63.16
49973;BME280;65693;49.798;10.968;2023-03-22T00:13:29;97983.84;;;10.53;63.39
49973;BME280;65693;49.798;10.968;2023-03-22T00:15:57;97982.13;;;10.52;63.26
49973;BME280;65693;49.798;10.968;2023-03-22T00:18:27;97987.34;;;10.53;63.05
49973;BME280;65693;49.798;10.968;2023-03-22T00:20:55;97989.13;;;10.53;63.29
49973;BME280;65693;49.798;10.968;2023-03-22T00:23:23;97983.09;;;10.51;63.34
49973;BME280;65693;49.798;10.968;2023-03-22T00:25:49;97979.59;;;10.50;63.32
49973;BME280;65693;49.798;10.968;2023-03-22T00:28:29;97968.06;;;10.51;63.30
49973;BME280;65693;49.798;10.968;2023-03-22T00:30:57;97968.16;;;10.50;63.34
49973;BME280;65693;49.798;10.968;2023-03-22T00:33:26;97967.09;;;10.52;63.09
49973;BME280;65693;49.798;10.968;2023-03-22T00:36:03;97967.28;;;10.49;63.11
49973;BME280;65693;49.798;10.968;2023-03-22T00:38:33;97964.53;;;10.51;62.99
49973;BME280;65693;49.798;10.968;2023-03-22T00:41:06;97976.09;;;10.50;63.09
49973;BME280;65693;49.798;10.968;2023-03-22T00:43:37;97977.88;;;10.49;63.34
49973;BME280;65693;49.798;10.968;2023-03-22T00:46:07;97982.44;;;10.47;63.27
49973;BME280;65693;49.798;10.968;2023-03-22T00:48:34;97975.34;;;10.48;63.23
49973;BME280;65693;49.798;10.968;2023-03-22T00:51:04;97970.88;;;10.48;63.24
49973;BME280;65693;49.798;10.968;2023-03-22T00:53:33;97961.25;;;10.47;63.29
49973;BME280;65693;49.798;10.968;2023-03-22T00:56:04;97955.00;;;10.48;63.12
49973;BME280;65693;49.798;10.968;2023-03-22T00:58:30;97948.94;;;10.46;63.20
49973;BME280;65693;49.798;10.968;2023-03-22T01:01:04;97953.28;;;10.47;63.20
49973;BME280;65693;49.798;10.968;2023-03-22T01:03:34;97956.91;;;10.46;62.97
49973;BME280;65693;49.798;10.968;2023-03-22T01:06:03;97948.94;;;10.46;63.09
49973;BME280;65693;49.798;10.968;2023-03-22T01:08:43;97956.06;;;10.46;63.16
49973;BME280;65693;49.798;10.968;2023-03-22T01:11:10;97940.03;;;10.47;62.99
49973;BME280;65693;49.798;10.968;2023-03-22T01:13:36;97946.31;;;10.46;63.14
49973;BME280;65693;49.798;10.968;2023-03-22T01:16:06;97941.00;;;10.46;63.09
49973;BME280;65693;49.798;10.968;2023-03-22T01:18:34;97935.69;;;10.46;62.99
49973;BME280;65693;49.798;10.968;2023-03-22T01:21:10;97934.88;;;10.46;62.88
49973;BME280;65693;49.798;10.968;2023-03-22T01:23:39;97931.47;;;10.44;62.94
49973;BME280;65693;49.798;10.968;2023-03-22T01:26:06;97923.53;;;10.44;63.02
49973;BME280;65693;49.798;10.968;2023-03-22T01:28:32;97920.88;;;10.44;62.95
49973;BME280;65693;49.798;10.968;2023-03-22T01:31:00;97923.53;;;10.44;63.26
49973;BME280;65693;49.798;10.968;2023-03-22T01:33:33;97929.44;;;10.47;62.91
49973;BME280;65693;49.798;10.968;2023-03-22T01:36:07;97931.47;;;10.44;62.90
49973;BME280;65693;49.798;10.968;2023-03-22T01:38:34;97927.75;;;10.46;62.77
49973;BME280;65693;49.798;10.968;2023-03-22T01:41:02;97925.31;;;10.43;62.86
49973;BME280;65693;49.798;10.968;2023-03-22T01:43:36;97923.63;;;10.42;63.19
49973;BME280;65693;49.798;10.968;2023-03-22T01:46:03;97926.28;;;10.42;63.02
49973;BME280;65693;49.798;10.968;2023-03-22T01:48:44;97914.72;;;10.43;63.16
49973;BME280;65693;49.798;10.968;2023-03-22T01:51:15;97918.53;;;10.39;62.96
49973;BME280;65693;49.798;10.968;2023-03-22T01:53:47;97908.91;;;10.38;62.89
49973;BME280;65693;49.798;10.968;2023-03-22T01:56:20;97913.25;;;10.39;63.01
49973;BME280;65693;49.798;10.968;2023-03-22T01:58:47;97912.28;;;10.40;62.88
49973;BME280;65693;49.798;10.968;2023-03-22T02:01:17;97914.06;;;10.39;63.05
49973;BME280;65693;49.798;10.968;2023-03-22T02:03:50;97906.03;;;10.41;62.92
49973;BME280;65693;49.798;10.968;2023-03-22T02:06:20;97909.56;;;10.42;62.56
49973;BME280;65693;49.798;10.968;2023-03-22T02:08:58;97910.47;;;10.40;62.81
49973;BME280;65693;49.798;10.968;2023-03-22T02:11:31;97904.56;;;10.37;63.08
49973;BME280;65693;49.798;10.968;2023-03-22T02:14:08;97901.03;;;10.36;62.94
49973;BME280;65693;49.798;10.968;2023-03-22T02:16:52;97903.81;;;10.35;62.79
49973;BME280;65693;49.798;10.968;2023-03-22T02:19:43;97909.84;;;10.37;63.06
49973;BME280;65693;49.798;10.968;2023-03-22T02:25:52;97891.41;;;10.35;62.86
49973;BME280;65693;49.798;10.968;2023-03-22T02:28:38;97896.69;;;10.35;62.75
49973;BME280;65693;49.798;10.968;2023-03-22T02:31:37;97894.06;;;10.35;62.82
49973;BME280;65693;49.798;10.968;2023-03-22T02:34:37;97884.41;;;10.34;62.86
49973;BME280;65693;49.798;10.968;2023-03-22T02:37:25;97885.47;;;10.32;62.98
49973;BME280;65693;49.798;10.968;2023-03-22T02:40:15;97876.69;;;10.31;62.97
49973;BME280;65693;49.798;10.968;2023-03-22T02:42:54;97882.72;;;10.33;62.69
49973;BME280;65693;49.798;10.968;2023-03-22T02:45:32;97874.03;;;10.31;62.79
49973;BME280;65693;49.798;10.968;2023-03-22T02:48:11;97881.13;;;10.31;62.88
49973;BME280;65693;49.798;10.968;2023-03-22T02:50:48;97876.78;;;10.30;63.04
49973;BME280;65693;49.798;10.968;2023-03-22T02:53:22;97878.59;;;10.29;62.75
49973;BME280;65693;49.798;10.968;2023-03-22T02:55:58;97881.03;;;10.32;62.58
49973;BME280;65693;49.798;10.968;2023-03-22T02:58:32;97881.84;;;10.33;62.54
49973;BME280;65693;49.798;10.968;2023-03-22T03:01:06;97874.78;;;10.33;62.78
49973;BME280;65693;49.798;10.968;2023-03-22T03:03:34;97870.09;;;10.24;62.90
49973;BME280;65693;49.798;10.968;2023-03-22T03:06:10;97876.03;;;10.28;62.73
49973;BME280;65693;49.798;10.968;2023-03-22T03:08:41;97877.84;;;10.27;62.62
49973;BME280;65693;49.798;10.968;2023-03-22T03:11:09;97876.97;;;10.27;62.77
49973;BME280;65693;49.798;10.968;2023-03-22T03:13:36;97876.03;;;10.28;62.75
49973;BME280;65693;49.798;10.968;2023-03-22T03:16:04;97875.38;;;10.24;62.92
49973;BME280;65693;49.798;10.968;2023-03-22T03:18:38;97874.66;;;10.22;62.97
49973;BME280;65693;49.798;10.968;2023-03-22T03:21:22;97875.38;;;10.24;62.72
49973;BME280;65693;49.798;10.968;2023-03-22T03:23:55;97884.28;;;10.23;62.91
49973;BME280;65693;49.798;10.968;2023-03-22T03:26:46;97878.91;;;10.24;62.64
49973;BME280;65693;49.798;10.968;2023-03-22T03:29:32;97881.75;;;10.21;62.70
49973;BME280;65693;49.798;10.968;2023-03-22T03:32:06;97887.88;;;10.22;62.80
49973;BME280;65693;49.798;10.968;2023-03-22T03:34:41;97883.44;;;10.22;62.96
49973;BME280;65693;49.798;10.968;2023-03-22T03:37:17;97893.41;;;10.19;62.87
49973;BME280;65693;49.798;10.968;2023-03-22T03:39:55;97890.66;;;10.20;62.75
49973;BME280;65693;49.798;10.968;2023-03-22T03:42:31;97889.16;;;10.16;62.94
49973;BME280;65693;49.798;10.968;2023-03-22T03:44:58;97886.31;;;10.19;62.76
49973;BME280;65693;49.798;10.968;2023-03-22T03:47:28;97896.03;;;10.19;62.94
49973;BME280;65693;49.798;10.968;2023-03-22T03:49:56;97881.97;;;10.18;62.80
49973;BME280;65693;49.798;10.968;2023-03-22T03:52:25;97889.91;;;10.18;62.73
49973;BME280;65693;49.798;10.968;2023-03-22T03:54:51;97888.22;;;10.17;62.95
49973;BME280;65693;49.798;10.968;2023-03-22T03:57:36;97886.41;;;10.18;62.72
49973;BME280;65693;49.798;10.968;2023-03-22T04:00:03;97890.09;;;10.15;62.98
49973;BME280;65693;49.798;10.968;2023-03-22T04:02:30;97898.03;;;10.15;62.63
49973;BME280;65693;49.798;10.968;2023-03-22T04:05:03;97886.72;;;10.13;63.04
49973;BME280;65693;49.798;10.968;2023-03-22T04:07:33;97897.31;;;10.13;62.65
49973;BME280;65693;49.798;10.968;2023-03-22T04:10:05;97892.88;;;10.14;62.82
49973;BME280;65693;49.798;10.968;2023-03-22T04:12:40;97888.41;;;10.14;62.72
49973;BME280;65693;49.798;10.968;2023-03-22T04:15:07;97893.91;;;10.11;62.80
49973;BME280;65693;49.798;10.968;2023-03-22T04:17:38;97883.22;;;10.13;62.52
49973;BME280;65693;49.798;10.968;2023-03-22T04:20:10;97888.53;;;10.13;62.76
49973;BME280;65693;49.798;10.968;2023-03-22T04:22:40;97893.09;;;10.10;62.96
49973;BME280;65693;49.798;10.968;2023-03-22T04:25:10;97888.63;;;10.11;62.62
49973;BME280;65693;49.798;10.968;2023-03-22T04:27:49;97885.97;;;10.11;62.92
49973;BME280;65693;49.798;10.968;2023-03-22T04:30:21;97890.44;;;10.10;62.64
49973;BME280;65693;49.798;10.968;2023-03-22T04:32:55;97891.25;;;10.11;62.60
49973;BME280;65693;49.798;10.968;2023-03-22T04:35:23;97886.19;;;10.08;62.71
49973;BME280;65693;49.798;10.968;2023-03-22T04:37:50;97884.47;;;10.07;62.71
49973;BME280;65693;49.798;10.968;2023-03-22T04:40:19;97890.63;;;10.07;62.97
49973;BME280;65693;49.798;10.968;2023-03-22T04:42:59;97889.03;;;10.05;63.09
49973;BME280;65693;49.798;10.968;2023-03-22T04:45:29;97886.28;;;10.06;62.85
49973;BME280;65693;49.798;10.968;2023-03-22T04:48:00;97884.56;;;10.05;62.93
49973;BME280;65693;49.798;10.968;2023-03-22T04:50:41;97878.44;;;10.05;62.77
49973;BME280;65693;49.798;10.968;2023-03-22T04:53:10;97882.06;;;10.04;62.77
49973;BME280;65693;49.798;10.968;2023-03-22T04:55:38;97884.69;;;10.04;63.00
49973;BME280;65693;49.798;10.968;2023-03-22T04:58:06;97884.69;;;10.04;62.84
49973;BME280;65693;49.798;10.968;2023-03-22T05:00:34;97880.22;;;10.04;62.78
49973;BME280;65693;49.798;10.968;2023-03-22T05:03:08;97877.72;;;10.03;63.01
49973;BME280;65693;49.798;10.968;2023-03-22T05:05:37;97879.63;;;10.01;62.99
49973;BME280;65693;49.798;10.968;2023-03-22T05:08:05;97870.59;;;10.03;62.87
49973;BME280;65693;49.798;10.968;2023-03-22T05:10:38;97877.78;;;10.01;62.79
49973;BME280;65693;49.798;10.968;2023-03-22T05:13:04;97868.91;;;10.02;62.86
49973;BME280;65693;49.798;10.968;2023-03-22T05:15:37;97873.53;;;9.99;63.07
49973;BME280;65693;49.798;10.968;2023-03-22T05:18:04;97866.38;;;10.01;62.71
49973;BME280;65693;49.798;10.968;2023-03-22T05:20:31;97877.06;;;9.99;62.88
49973;BME280;65693;49.798;10.968;2023-03-22T05:23:10;97869.03;;;10.01;63.02
49973;BME280;65693;49.798;10.968;2023-03-22T05:25:40;97865.50;;;10.00;62.62
49973;BME280;65693;49.798;10.968;2023-03-22T05:28:11;97858.44;;;10.01;62.91
49973;BME280;65693;49.798;10.968;2023-03-22T05:30:44;97871.66;;;10.01;62.61
49973;BME280;65693;49.798;10.968;2023-03-22T05:33:11;97864.56;;;10.01;62.63
49973;BME280;65693;49.798;10.968;2023-03-22T05:35:42;97862.00;;;10.00;62.76
49973;BME280;65693;49.798;10.968;2023-03-22T05:38:10;97862.88;;;10.00;62.72
49973;BME280;65693;49.798;10.968;2023-03-22T05:40:37;97856.72;;;10.00;62.82
49973;BME280;65693;49.798;10.968;2023-03-22T05:43:06;97859.47;;;9.98;62.68
49973;BME280;65693;49.798;10.968;2023-03-22T05:45:34;97857.66;;;9.99;62.72
49973;BME280;65693;49.798;10.968;2023-03-22T05:48:08;97856.91;;;9.96;62.66
49973;BME280;65693;49.798;10.968;2023-03-22T05:50:37;97857.03;;;9.95;62.80
49973;BME280;65693;49.798;10.968;2023-03-22T05:53:07;97850.66;;;9.97;62.43
49973;BME280;65693;49.798;10.968;2023-03-22T05:55:37;97843.91;;;9.93;62.77
49973;BME280;65693;49.798;10.968;2023-03-22T05:58:10;97842.00;;;9.95;62.80
49973;BME280;65693;49.798;10.968;2023-03-22T06:00:38;97849.19;;;9.93;62.89
49973;BME280;65693;49.798;10.968;2023-03-22T06:03:08;97848.97;;;9.96;62.86
49973;BME280;65693;49.798;10.968;2023-03-22T06:05:36;97846.44;;;9.95;62.62
49973;BME280;65693;49.798;10.968;2023-03-22T06:08:05;97844.75;;;9.94;62.71
49973;BME280;65693;49.798;10.968;2023-03-22T06:10:31;97846.66;;;9.92;63.10
49973;BME280;65693;49.798;10.968;2023-03-22T06:13:12;97845.88;;;9.90;62.66
49973;BME280;65693;49.798;10.968;2023-03-22T06:15:39;97849.84;;;9.97;62.91
49973;BME280;65693;49.798;10.968;2023-03-22T06:18:06;97856.91;;;9.96;62.52
49973;BME280;65693;49.798;10.968;2023-03-22T06:20:46;97858.53;;;9.99;62.59
49973;BME280;65693;49.798;10.968;2023-03-22T06:23:16;97863.16;;;9.95;62.70
49973;BME280;65693;49.798;10.968;2023-03-22T06:25:44;97862.34;;;9.95;62.92
49973;BME280;65693;49.798;10.968;2023-03-22T06:28:11;97860.31;;;9.99;62.54
49973;BME280;65693;49.798;10.968;2023-03-22T06:30:41;97857.88;;;9.95;63.03
49973;BME280;65693;49.798;10.968;2023-03-22T06:33:10;97857.03;;;9.95;62.55
49973;BME280;65693;49.798;10.968;2023-03-22T06:35:51;97858.94;;;9.93;62.89
49973;BME280;65693;49.798;10.968;2023-03-22T06:38:18;97859.03;;;9.91;62.73
49973;BME280;65693;49.798;10.968;2023-03-22T06:40:46;97858.09;;;9.92;62.99
49973;BME280;65693;49.798;10.968;2023-03-22T06:43:13;97858.09;;;9.92;62.59
49973;BME280;65693;49.798;10.968;2023-03-22T06:45:41;97856.38;;;9.91;62.67
49973;BME280;65693;49.798;10.968;2023-03-22T06:48:09;97866.13;;;9.91;62.76
49973;BME280;65693;49.798;10.968;2023-03-22T06:50:37;97860.94;;;9.89;62.97
49973;BME280;65693;49.798;10.968;2023-03-22T06:53:12;97860.94;;;9.89;62.69
49973;BME280;65693;49.798;10.968;2023-03-22T06:55:40;97872.47;;;9.88;62.77
49973;BME280;65693;49.798;10.968;2023-03-22T06:58:07;97866.44;;;9.86;62.76
49973;BME280;65693;49.798;10.968;2023-03-22T07:00:33;97863.78;;;9.86;62.84
49973;BME280;65693;49.798;10.968;2023-03-22T07:03:00;97870.78;;;9.87;62.82
49973;BME280;65693;49.798;10.968;2023-03-22T07:05:31;97871.63;;;9.88;62.58
49973;BME280;65693;49.798;10.968;2023-03-22T07:08:01;97874.38;;;9.86;62.94
49973;BME280;65693;49.798;10.968;2023-03-22T07:10:35;97861.91;;;9.88;63.01
49973;BME280;65693;49.798;10.968;2023-03-22T07:13:04;97862.72;;;9.89;62.93
49973;BME280;65693;49.798;10.968;2023-03-22T07:15:34;97864.53;;;9.88;62.91
49973;BME280;65693;49.798;10.968;2023-03-22T07:18:04;97867.19;;;9.88;62.95
49973;BME280;65693;49.798;10.968;2023-03-22T07:20:32;97873.31;;;9.89;63.01
49973;BME280;65693;49.798;10.968;2023-03-22T07:23:02;97865.38;;;9.89;62.96
49973;BME280;65693;49.798;10.968;2023-03-22T07:25:49;97877.66;;;9.90;63.05
49973;BME280;65693;49.798;10.968;2023-03-22T07:28:20;97878.53;;;9.90;62.71
49973;BME280;65693;49.798;10.968;2023-03-22T07:30:58;97875.97;;;9.89;63.10
49973;BME280;65693;49.798;10.968;2023-03-22T07:33:27;97879.56;;;9.88;63.00
49973;BME280;65693;49.798;10.968;2023-03-22T07:35:53;97884.75;;;9.89;62.76
49973;BME280;65693;49.798;10.968;2023-03-22T07:38:21;97872.47;;;9.88;62.88
49973;BME280;65693;49.798;10.968;2023-03-22T07:40:53;97887.28;;;9.91;62.68
49973;BME280;65693;49.798;10.968;2023-03-22T07:43:28;97879.25;;;9.92;63.10
49973;BME280;65693;49.798;10.968;2023-03-22T07:45:55;97877.66;;;9.90;62.63
49973;BME280;65693;49.798;10.968;2023-03-22T07:48:26;97874.19;;;9.89;63.06
49973;BME280;65693;49.798;10.968;2023-03-22T07:51:08;97873.31;;;9.89;62.73
49973;BME280;65693;49.798;10.968;2023-03-22T07:53:38;97879.25;;;9.92;62.64
49973;BME280;65693;49.798;10.968;2023-03-22T07:56:12;97886.47;;;9.90;63.00
49973;BME280;65693;49.798;10.968;2023-03-22T07:58:40;97890.81;;;9.91;62.96
49973;BME280;65693;49.798;10.968;2023-03-22T08:01:08;97881.25;;;9.89;63.08
49973;BME280;65693;49.798;10.968;2023-03-22T08:03:38;97880.41;;;9.88;62.69
49973;BME280;65693;49.798;10.968;2023-03-22T08:06:07;97881.25;;;9.89;63.10
49973;BME280;65693;49.798;10.968;2023-03-22T08:08:35;97876.81;;;9.89;62.74
49973;BME280;65693;49.798;10.968;2023-03-22T08:11:04;97879.34;;;9.91;63.06
49973;BME280;65693;49.798;10.968;2023-03-22T08:13:34;97884.75;;;9.89;62.99
49973;BME280;65693;49.798;10.968;2023-03-22T08:16:05;97880.50;;;9.87;63.12
49973;BME280;65693;49.798;10.968;2023-03-22T08:18:41;97882.00;;;9.91;62.72
49973;BME280;65693;49.798;10.968;2023-03-22T08:21:08;97879.34;;;9.91;62.82
49973;BME280;65693;49.798;10.968;2023-03-22T08:23:35;97874.19;;;9.89;62.92
49973;BME280;65693;49.798;10.968;2023-03-22T08:26:03;97868.88;;;9.89;63.13
49973;BME280;65693;49.798;10.968;2023-03-22T08:28:34;97868.88;;;9.89;62.97
49973;BME280;65693;49.798;10.968;2023-03-22T08:31:09;97873.13;;;9.92;63.28
49973;BME280;65693;49.798;10.968;2023-03-22T08:33:38;97864.25;;;9.93;63.09
49973;BME280;65693;49.798;10.968;2023-03-22T08:36:05;97877.47;;;9.93;63.05
49973;BME280;65693;49.798;10.968;2023-03-22T08:38:32;97869.63;;;9.91;62.81
49973;BME280;65693;49.798;10.968;2023-03-22T08:41:00;97871.31;;;9.92;63.26
49973;BME280;65693;49.798;10.968;2023-03-22T08:43:28;97872.94;;;9.95;63.10
49973;BME280;65693;49.798;10.968;2023-03-22T08:45:56;97864.97;;;9.95;62.78
49973;BME280;65693;49.798;10.968;2023-03-22T08:48:22;97872.94;;;9.95;62.92
49973;BME280;65693;49.798;10.968;2023-03-22T08:50:53;97875.44;;;9.96;63.29
49973;BME280;65693;49.798;10.968;2023-03-22T08:53:22;97874.63;;;9.96;63.12
49973;BME280;65693;49.798;10.968;2023-03-22T08:55:48;97869.94;;;10.00;63.07
49973;BME280;65693;49.798;10.968;2023-03-22T08:58:15;97866.47;;;9.99;62.96
49973;BME280;65693;49.798;10.968;2023-03-22T09:00:43;97869.19;;;9.97;63.18
49973;BME280;65693;49.798;10.968;2023-03-22T09:03:25;97862.00;;;10.00;63.15
49973;BME280;65693;49.798;10.968;2023-03-22T09:05:59;97871.75;;;9.99;63.41
49973;BME280;65693;49.798;10.968;2023-03-22T09:08:28;97866.25;;;10.02;63.31
49973;BME280;65693;49.798;10.968;2023-03-22T09:10:57;97868.06;;;10.02;63.09
49973;BME280;65693;49.798;10.968;2023-03-22T09:13:24;97863.41;;;10.05;62.96
49973;BME280;65693;49.798;10.968;2023-03-22T09:15:52;97856.31;;;10.06;62.81
49973;BME280;65693;49.798;10.968;2023-03-22T09:18:24;97865.09;;;10.06;63.12
49973;BME280;65693;49.798;10.968;2023-03-22T09:21:01;97863.94;;;10.10;62.61
49973;BME280;65693;49.798;10.968;2023-03-22T09:23:30;97864.03;;;10.09;63.05
49973;BME280;65693;49.798;10.968;2023-03-22T09:25:58;97848.91;;;10.11;62.69
49973;BME280;65693;49.798;10.968;2023-03-22T09:28:26;97847.94;;;10.12;62.87
49973;BME280;65693;49.798;10.968;2023-03-22T09:30:59;97849.41;;;10.16;62.88
49973;BME280;65693;49.798;10.968;2023-03-22T09:33:43;97850.38;;;10.15;62.88
49973;BME280;65693;49.798;10.968;2023-03-22T09:36:11;97841.47;;;10.16;62.80
49973;BME280;65693;49.798;10.968;2023-03-22T09:38:39;97838.00;;;10.16;62.76
49973;BME280;65693;49.798;10.968;2023-03-22T09:41:12;97837.91;;;10.17;62.54
49973;BME280;65693;49.798;10.968;2023-03-22T09:43:45;97834.91;;;10.22;62.66
49973;BME280;65693;49.798;10.968;2023-03-22T09:46:17;97832.19;;;10.23;62.74
49973;BME280;65693;49.798;10.968;2023-03-22T09:49:04;97826.97;;;10.22;62.72
49973;BME280;65693;49.798;10.968;2023-03-22T09:51:38;97831.22;;;10.24;62.96
49973;BME280;65693;49.798;10.968;2023-03-22T09:54:16;97820.63;;;10.24;62.57
49973;BME280;65693;49.798;10.968;2023-03-22T09:56:49;97817.88;;;10.26;62.50
49973;BME280;65693;49.798;10.968;2023-03-22T09:59:34;97819.47;;;10.29;62.52
49973;BME280;65693;49.798;10.968;2023-03-22T10:02:24;97816.72;;;10.30;62.47
49973;BME280;65693;49.798;10.968;2023-03-22T10:04:59;97819.38;;;10.30;62.41
49973;BME280;65693;49.798;10.968;2023-03-22T10:07:33;97814.91;;;10.31;62.64
49973;BME280;65693;49.798;10.968;2023-03-22T10:10:07;97810.69;;;10.28;62.76
49973;BME280;65693;49.798;10.968;2023-03-22T10:12:39;97809.59;;;10.31;62.61
49973;BME280;65693;49.798;10.968;2023-03-22T10:15:17;97818.09;;;10.36;62.46
49973;BME280;65693;49.798;10.968;2023-03-22T10:17:52;97812.78;;;10.36;62.49
49973;BME280;65693;49.798;10.968;2023-03-22T10:20:36;97808.34;;;10.36;62.53
49973;BME280;65693;49.798;10.968;2023-03-22T10:23:11;97808.13;;;10.39;62.64
49973;BME280;65693;49.798;10.968;2023-03-22T10:25:42;97805.47;;;10.39;62.75
49973;BME280;65693;49.798;10.968;2023-03-22T10:28:16;97804.50;;;10.40;62.49
49973;BME280;65693;49.798;10.968;2023-03-22T10:30:52;97798.38;;;10.40;62.51
49973;BME280;65693;49.798;10.968;2023-03-22T10:33:30;97792.13;;;10.41;62.50
49973;BME280;65693;49.798;10.968;2023-03-22T10:36:03;97796.47;;;10.42;62.53
49973;BME280;65693;49.798;10.968;2023-03-22T10:38:41;97784.81;;;10.45;62.34
49973;BME280;65693;49.798;10.968;2023-03-22T10:41:12;97776.88;;;10.45;62.37
49973;BME280;65693;49.798;10.968;2023-03-22T10:43:41;97776.66;;;10.48;62.47
49973;BME280;65693;49.798;10.968;2023-03-22T10:46:14;97778.34;;;10.49;62.49
49973;BME280;65693;49.798;10.968;2023-03-22T10:48:44;97773.88;;;10.49;62.24
49973;BME280;65693;49.798;10.968;2023-03-22T10:51:20;97767.66;;;10.50;62.40
49973;BME280;65693;49.798;10.968;2023-03-22T10:53:50;97772.72;;;10.53;62.27
49973;BME280;65693;49.798;10.968;2023-03-22T10:56:19;97763.09;;;10.52;62.41
49973;BME280;65693;49.798;10.968;2023-03-22T10:58:49;97775.25;;;10.55;62.34
49973;BME280;65693;49.798;10.968;2023-03-22T11:01:24;97768.25;;;10.54;62.41
49973;BME280;65693;49.798;10.968;2023-03-22T11:03:56;97768.78;;;10.59;62.20
49973;BME280;65693;49.798;10.968;2023-03-22T11:06:28;97766.97;;;10.60;62.22
49973;BME280;65693;49.798;10.968;2023-03-22T11:09:11;97767.63;;;10.63;62.52
49973;BME280;65693;49.798;10.968;2023-03-22T11:11:46;97770.50;;;10.60;62.57
49973;BME280;65693;49.798;10.968;2023-03-22T11:14:15;97768.56;;;10.62;62.41
49973;BME280;65693;49.798;10.968;2023-03-22T11:16:46;97766.66;;;10.64;62.43
49973;BME280;65693;49.798;10.968;2023-03-22T11:19:20;97761.22;;;10.66;62.22
49973;BME280;65693;49.798;10.968;2023-03-22T11:21:50;97757.66;;;10.67;62.24
49973;BME280;65693;49.798;10.968;2023-03-22T11:24:23;97760.06;;;10.70;62.16
49973;BME280;65693;49.798;10.968;2023-03-22T11:27:04;97758.19;;;10.72;62.27
49973;BME280;65693;49.798;10.968;2023-03-22T11:29:43;97752.75;;;10.74;62.42
49973;BME280;65693;49.798;10.968;2023-03-22T11:32:24;97753.53;;;10.76;62.38
49973;BME280;65693;49.798;10.968;2023-03-22T11:34:58;97753.53;;;10.76;62.34
49973;BME280;65693;49.798;10.968;2023-03-22T11:37:29;97754.13;;;10.79;62.33
49973;BME280;65693;49.798;10.968;2023-03-22T11:40:00;97756.78;;;10.79;62.33
49973;BME280;65693;49.798;10.968;2023-03-22T11:42:34;97757.63;;;10.80;62.29
49973;BME280;65693;49.798;10.968;2023-03-22T11:45:02;97754.13;;;10.79;62.20
49973;BME280;65693;49.798;10.968;2023-03-22T11:47:36;97753.16;;;10.80;62.17
49973;BME280;65693;49.798;10.968;2023-03-22T11:50:24;97754.66;;;10.85;62.37
49973;BME280;65693;49.798;10.968;2023-03-22T11:52:56;97755.38;;;10.87;62.12
49973;BME280;65693;49.798;10.968;2023-03-22T11:55:25;97752.84;;;10.85;62.23
49973;BME280;65693;49.798;10.968;2023-03-22T11:57:53;97743.59;;;10.91;62.28
49973;BME280;65693;49.798;10.968;2023-03-22T12:00:23;97750.38;;;10.95;62.21
49973;BME280;65693;49.798;10.968;2023-03-22T12:02:53;97738.06;;;10.94;62.63
49973;BME280;65693;49.798;10.968;2023-03-22T12:05:25;97741.44;;;10.96;62.38
49973;BME280;65693;49.798;10.968;2023-03-22T12:07:59;97744.09;;;10.96;62.29
49973;BME280;65693;49.798;10.968;2023-03-22T12:10:30;97744.97;;;10.96;62.40
49973;BME280;65693;49.798;10.968;2023-03-22T12:13:02;97733.41;;;10.98;62.21
49973;BME280;65693;49.798;10.968;2023-03-22T12:15:34;97736.03;;;10.98;62.39
49973;BME280;65693;49.798;10.968;2023-03-22T12:18:04;97738.38;;;11.02;62.17
49973;BME280;65693;49.798;10.968;2023-03-22T12:20:40;97723.19;;;11.04;62.26
49973;BME280;65693;49.798;10.968;2023-03-22T12:23:17;97732.22;;;11.02;62.52
49973;BME280;65693;49.798;10.968;2023-03-22T12:25:48;97740.06;;;11.03;62.29
49973;BME280;65693;49.798;10.968;2023-03-22T12:28:19;97722.31;;;11.04;62.14
49973;BME280;65693;49.798;10.968;2023-03-22T12:30:50;97717.88;;;11.04;62.25
49973;BME280;65693;49.798;10.968;2023-03-22T12:33:21;97709.94;;;11.04;62.43
49973;BME280;65693;49.798;10.968;2023-03-22T12:35:54;97708.97;;;11.05;62.53
49973;BME280;65693;49.798;10.968;2023-03-22T12:38:28;97719.56;;;11.05;62.61
49973;BME280;65693;49.798;10.968;2023-03-22T12:41:01;97704.28;;;11.09;62.41
49973;BME280;65693;49.798;10.968;2023-03-22T12:43:43;97699.72;;;11.11;62.26
49973;BME280;65693;49.798;10.968;2023-03-22T12:46:19;97699.59;;;11.13;62.19
49973;BME280;65693;49.798;10.968;2023-03-22T12:48:49;97702.97;;;11.15;62.28
49973;BME280;65693;49.798;10.968;2023-03-22T12:51:17;97693.22;;;11.15;62.20
49973;BME280;65693;49.798;10.968;2023-03-22T12:53:51;97693.22;;;11.15;62.40
49973;BME280;65693;49.798;10.968;2023-03-22T12:56:25;97695.00;;;11.15;62.51
49973;BME280;65693;49.798;10.968;2023-03-22T12:59:00;97691.41;;;11.16;62.44
49973;BME280;65693;49.798;10.968;2023-03-22T13:01:36;97682.59;;;11.15;62.30
49973;BME280;65693;49.798;10.968;2023-03-22T13:04:28;97691.28;;;11.17;62.29
49973;BME280;65693;49.798;10.968;2023-03-22T13:07:09;97680.78;;;11.16;62.43
49973;BME280;65693;49.798;10.968;2023-03-22T13:09:42;97685.16;;;11.17;62.54
49973;BME280;65693;49.798;10.968;2023-03-22T13:12:36;97676.25;;;11.18;62.45
49973;BME280;65693;49.798;10.968;2023-03-22T13:15:29;97669.84;;;11.20;62.42
49973;BME280;65693;49.798;10.968;2023-03-22T13:17:57;97673.44;;;11.19;62.57
49973;BME280;65693;49.798;10.968;2023-03-22T13:20:31;97671.66;;;11.20;62.40
49973;BME280;65693;49.798;10.968;2023-03-22T13:23:28;97659.22;;;11.20;62.46